Sao Marcos, Brazil
Current Conditions -  °F | °C
As of 9:00 PM on Tuesday 27 Jan 2015 (Local Time) from SBCO Reporting Station
Thunderstorm Thunderstorm  
Wind Chill: 79°   Ceiling: 10000
Heat Index: 82°   Visibility: 6mi
Dew Point: 72°   Wind: 2mph
Humidity: 78%   Direction: NA
Pressure: 29.83"   Gusts: NA
Location:  28.97°S, 51.07°W
Report Text: SBCO 272300Z VRB02KT 9999 TS FEW040CB BKN100 26/22 Q1010
Loading
Personal Weather Stations






























Interactive Weather Map New forecast layout! Learn more

10-Day Weather Forecast

Advertisements
Track Severe Weather on mobile